Flight Track Log - Related Links

Times and Time Zones

All times are in EDT time to prevent confusion due to time zone crossing. See the SKW5516 flight status page for this flight to view local times or setup timezone preferences in your user account.

Time Position Orientation Groundspeed Altitude Reporting Facility
EDT Latitude Longitude Course Direction KTS MPH feet Rate Location/Type
Mon 06:19:00 PM 36.5311 -119.6012 159° South  Level Estimated
Mon 06:20:00 PM 36.4698 -119.5720 159° South  Level Estimated
Mon 06:21:00 PM 36.4084 -119.5428 159° South  Level Estimated
Mon 06:22:00 PM 36.3471 -119.5136 159° South  Level Estimated
Mon 06:23:00 PM 36.2857 -119.4845 159° South  Level Estimated
Mon 06:24:00 PM 36.2244 -119.4555 159° South  Level Estimated
Mon 06:25:00 PM 36.1630 -119.4265 159° South  Level Estimated
Mon 06:26:00 PM 36.1016 -119.3975 159° South  Level Estimated
Mon 06:27:00 PM 36.0402 -119.3686 159° South  Level Estimated
Mon 06:28:00 PM 35.9788 -119.3397 159° South  Level Estimated
Mon 06:29:00 PM 35.9174 -119.3109 159° South  Level Estimated
Mon 06:30:00 PM 35.8560 -119.2821 159° South  Level Estimated
Mon 06:31:00 PM 35.7946 -119.2533 159° South  Level Estimated
Mon 06:32:00 PM 35.7332 -119.2246 159° South  Level Estimated
Mon 06:33:00 PM 35.6717 -119.1960 159° South  Level Estimated
Mon 06:34:00 PM 35.6103 -119.1674 159° South  Level Estimated
Mon 06:35:00 PM 35.5489 -119.1388 159° South  Level Estimated
Mon 06:36:00 PM 35.4874 -119.1103 159° South  Level Estimated
Mon 06:37:00 PM 35.4260 -119.0818 159° South  Level Estimated
Mon 06:38:00 PM 35.3645 -119.0534 159° South  Level Estimated
Mon 06:39:00 PM 35.3030 -119.0250 159° South  Level Estimated
Mon 06:40:00 PM 35.2416 -118.9966 159° South  Level Estimated
Mon 06:41:00 PM 35.1801 -118.9683 159° South  Level Estimated
Mon 06:42:00 PM 35.1186 -118.9401 159° South  Level Estimated
Mon 06:43:00 PM 35.0571 -118.9118 159° South  Level Estimated
Mon 06:44:00 PM 34.9956 -118.8837 159° South  Level Estimated
Mon 06:45:00 PM 34.9341 -118.8555 159° South  Level Estimated
Mon 06:46:00 PM 34.8726 -118.8274 159° South  Level Estimated
Mon 06:47:00 PM 34.8110 -118.7994 159° South  Level Estimated
Mon 06:48:00 PM 34.7495 -118.7714 159° South  Level Estimated
Mon 06:49:00 PM 34.6880 -118.7434 160° South  Level Estimated
Mon 06:50:00 PM 34.6264 -118.7155 160° South  Level Estimated
Mon 06:51:00 PM 34.5649 -118.6876 160° South  Level Estimated
Mon 06:52:00 PM 34.5033 -118.6598 160° South  Level Estimated
Mon 06:53:00 PM 34.4418 -118.6320 160° South  Level Estimated
Mon 06:54:00 PM 34.3802 -118.6042 160° South  Level Estimated
Mon 06:55:00 PM 34.3186 -118.5765 160° South  Level Estimated
Mon 06:56:00 PM 34.2570 -118.5488 160° South  Level Estimated
Mon 06:57:00 PM 34.1955 -118.5212 160° South  Level Estimated
Mon 06:58:00 PM 34.1339 -118.4936 160° South  Level Estimated
Mon 06:59:00 PM 34.0723 -118.4660 160° South  Level Estimated
Mon 07:00:00 PM 34.0107 -118.4385 160° South  Level Estimated
Mon 07:01:00 PM 33.9491 -118.4110 160° South  Level Estimated
Mon 07:02:00 PM 33.9425 -118.4081 160° South  Level Estimated
Mon 07:03:00 PM 33.9425 -118.4081 164° South  Level Estimated
Mon 07:04:00 PM 33.9425 -118.4081 164° South  Level Estimated
Mon 07:05:00 PM 33.9425 -118.4081 164° South  Level Estimated
Mon 07:06:00 PM 33.9425 -118.4081 164° South  Level Estimated
Mon 07:07:00 PM 33.9425 -118.4081 164° South  Level Estimated
Mon 07:08:00 PM 33.9425 -118.4081 164° South  Level Estimated

Login

Don't have an account? Register now (free) for customized features, flight alerts, and more!